Time;durP1;ratioP1;P1;durP2;ratioP2;P2;SDS_P1;SDS_P2;PMS_P1;PMS_P2;Temp;Humidity;BMP_temperature;BMP_pressure;BME280_temperature;BME280_humidity;BME280_pressure;Samples;Min_cycle;Max_cycle;Signal;HPM_P1;HPM_P2
2021/07/20 00:02:31;;;;;;;10.65;4.85;;;22.20;89.90;;;;;;5108225;28;20045;-81
2021/07/20 00:04:57;;;;;;;12.30;5.88;;;22.30;90.00;;;;;;5108280;28;20118;-82
2021/07/20 00:07:22;;;;;;;9.10;5.00;;;22.20;90.00;;;;;;5108151;28;20555;-77
2021/07/20 00:09:48;;;;;;;9.63;5.72;;;22.20;90.10;;;;;;5108210;28;20069;-83
2021/07/20 00:12:14;;;;;;;13.07;5.80;;;22.20;90.10;;;;;;5108989;28;20050;-79
2021/07/20 00:14:39;;;;;;;12.50;5.72;;;22.20;90.00;;;;;;5109662;28;20023;-82
2021/07/20 00:17:05;;;;;;;9.07;4.93;;;22.20;90.00;;;;;;5108424;28;20032;-84
2021/07/20 00:19:31;;;;;;;10.05;6.40;;;22.20;90.20;;;;;;5108974;28;20055;-84
2021/07/20 00:21:56;;;;;;;16.60;5.88;;;22.20;90.20;;;;;;5107824;28;20043;-85
2021/07/20 00:24:22;;;;;;;11.88;6.18;;;22.10;90.30;;;;;;5107657;28;20496;-84
2021/07/20 00:26:48;;;;;;;11.18;6.20;;;22.10;90.60;;;;;;5109109;28;20531;-82
2021/07/20 00:29:13;;;;;;;17.83;5.78;;;22.10;90.50;;;;;;5109043;28;20020;-85
2021/07/20 00:31:39;;;;;;;15.75;6.13;;;22.00;90.70;;;;;;5107949;28;20119;-85
2021/07/20 00:34:06;;;;;;;15.85;5.28;;;22.00;90.80;;;;;;5109243;28;20349;-84
2021/07/20 00:36:32;;;;;;;10.02;5.22;;;22.00;91.60;;;;;;5109276;28;20053;-82
2021/07/20 00:38:58;;;;;;;11.35;6.25;;;21.90;91.80;;;;;;5106844;28;20024;-83
2021/07/20 00:41:23;;;;;;;10.23;5.97;;;21.90;92.30;;;;;;5109267;28;20039;-84
2021/07/20 00:43:49;;;;;;;17.52;6.47;;;21.90;92.30;;;;;;5107225;28;20325;-83
2021/07/20 00:46:15;;;;;;;16.08;6.70;;;21.70;92.70;;;;;;5108382;28;20039;-86
2021/07/20 00:48:41;;;;;;;11.45;6.53;;;21.70;92.30;;;;;;5107956;28;20106;-85
2021/07/20 00:51:06;;;;;;;12.55;5.82;;;21.70;91.60;;;;;;5108829;28;20035;-83
2021/07/20 00:53:32;;;;;;;17.27;7.22;;;21.70;91.70;;;;;;5107222;28;20578;-84
2021/07/20 00:55:58;;;;;;;17.20;6.45;;;21.70;92.30;;;;;;5107190;28;20048;-85
2021/07/20 00:58:24;;;;;;;17.15;6.65;;;21.60;92.60;;;;;;5107166;28;20020;-86
2021/07/20 01:00:52;;;;;;;11.93;6.78;;;21.60;93.00;;;;;;5108836;28;20403;-85
2021/07/20 01:03:18;;;;;;;11.60;6.95;;;21.50;94.10;;;;;;5108391;28;20519;-85
2021/07/20 01:05:44;;;;;;;19.52;7.35;;;21.50;94.80;;;;;;5107018;28;20028;-81
2021/07/20 01:08:11;;;;;;;11.50;6.68;;;21.40;96.00;;;;;;5106890;28;20058;-83
2021/07/20 01:10:40;;;;;;;16.80;6.70;;;21.20;96.40;;;;;;5108010;28;20024;-81
2021/07/20 01:13:06;;;;;;;10.68;6.13;;;21.10;96.60;;;;;;5108278;28;20131;-83
2021/07/20 01:15:33;;;;;;;14.15;6.68;;;21.00;96.80;;;;;;5108432;28;20028;-83
2021/07/20 01:18:00;;;;;;;15.00;7.30;;;20.90;97.40;;;;;;5108064;28;20084;-84
2021/07/20 01:20:29;;;;;;;11.25;6.10;;;20.90;97.70;;;;;;5107784;28;20036;-84
2021/07/20 01:23:22;;;;;;;12.85;6.90;;;20.90;98.00;;;;;;5106665;28;20035;-84
2021/07/20 01:25:49;;;;;;;13.65;6.53;;;20.90;98.00;;;;;;5107941;28;20650;-84
2021/07/20 01:28:22;;;;;;;15.18;6.38;;;20.80;98.10;;;;;;5106759;28;20445;-83
2021/07/20 01:30:51;;;;;;;16.73;7.88;;;20.80;98.70;;;;;;5106434;28;20118;-85
2021/07/20 01:33:19;;;;;;;13.65;7.72;;;20.70;98.20;;;;;;5107018;28;20063;-85
2021/07/20 01:35:47;;;;;;;10.88;7.47;;;20.70;98.00;;;;;;5106513;28;20027;-84
2021/07/20 01:38:14;;;;;;;19.80;8.38;;;20.70;98.60;;;;;;5107932;28;20023;-83
2021/07/20 01:40:40;;;;;;;11.07;7.82;;;20.60;98.80;;;;;;5106770;28;20035;-82
2021/07/20 01:43:07;;;;;;;21.50;8.30;;;20.50;99.10;;;;;;5106088;28;20034;-84
2021/07/20 01:45:35;;;;;;;17.83;7.00;;;20.50;99.20;;;;;;5106132;28;20063;-83
2021/07/20 01:48:03;;;;;;;13.98;7.80;;;20.50;99.30;;;;;;5106618;28;20058;-81
2021/07/20 01:50:30;;;;;;;13.35;7.95;;;20.40;99.20;;;;;;5107101;28;20519;-81
2021/07/20 01:52:57;;;;;;;16.73;6.82;;;20.40;99.10;;;;;;5107387;28;20406;-81
2021/07/20 01:55:26;;;;;;;12.23;8.23;;;20.30;98.90;;;;;;5106001;28;20038;-83
2021/07/20 01:57:53;;;;;;;13.50;7.13;;;20.30;98.80;;;;;;5106114;28;20047;-84
2021/07/20 02:00:20;;;;;;;15.30;8.18;;;20.20;98.90;;;;;;5107334;28;20039;-84
2021/07/20 02:02:58;;;;;;;14.52;8.10;;;20.10;98.90;;;;;;5105704;28;20027;-85
2021/07/20 02:10:48;;;;;;;13.35;7.57;;;20.00;98.90;;;;;;5107002;28;20118;-80
2021/07/20 02:13:16;;;;;;;9.82;7.32;;;20.10;99.10;;;;;;5105882;28;20440;-80
2021/07/20 02:15:44;;;;;;;10.80;7.13;;;20.00;99.20;;;;;;5107613;28;20084;-83
2021/07/20 02:18:10;;;;;;;12.15;8.13;;;20.00;99.10;;;;;;5105690;28;20077;-83
2021/07/20 02:20:42;;;;;;;18.98;8.05;;;20.00;99.20;;;;;;5105661;28;20038;-84
2021/07/20 02:23:08;;;;;;;18.98;8.27;;;20.00;99.10;;;;;;5106594;28;20080;-80
2021/07/20 02:25:36;;;;;;;12.32;7.80;;;19.90;99.00;;;;;;5105854;28;20045;-82
2021/07/20 02:28:04;;;;;;;14.23;8.63;;;19.90;99.20;;;;;;5105778;28;20059;-82
2021/07/20 02:30:31;;;;;;;11.10;8.15;;;19.70;98.10;;;;;;5107218;28;20555;-83
2021/07/20 02:33:00;;;;;;;15.77;9.82;;;19.70;98.20;;;;;;5105698;28;20047;-85
2021/07/20 02:35:27;;;;;;;16.85;10.10;;;19.70;97.80;;;;;;5105532;28;20027;-83
2021/07/20 02:37:55;;;;;;;14.38;9.60;;;19.80;97.40;;;;;;5107192;28;20031;-86
2021/07/20 02:40:22;;;;;;;17.77;10.27;;;19.80;96.80;;;;;;5105819;28;20032;-85
2021/07/20 02:42:51;;;;;;;16.80;9.38;;;19.90;96.30;;;;;;5105683;28;20024;-88
2021/07/20 02:45:18;;;;;;;17.55;10.18;;;19.90;96.50;;;;;;5106724;28;20453;-84
2021/07/20 02:47:44;;;;;;;19.38;10.48;;;19.90;96.00;;;;;;5106581;28;20028;-83
2021/07/20 02:50:13;;;;;;;21.95;10.57;;;20.00;96.30;;;;;;5106789;28;20488;-82
2021/07/20 02:52:42;;;;;;;12.95;9.18;;;20.00;97.00;;;;;;5104923;28;20023;-84
2021/07/20 02:55:08;;;;;;;14.32;9.45;;;20.00;94.70;;;;;;5105469;28;20511;-80
2021/07/20 02:57:36;;;;;;;22.30;10.00;;;20.10;95.30;;;;;;5125029;28;20526;-83
2021/07/20 03:00:07;;;;;;;14.18;10.40;;;20.10;95.70;;;;;;5108530;28;20057;-82
2021/07/20 03:02:40;;;;;;;15.45;10.43;;;20.10;95.90;;;;;;5127226;28;20797;-81
2021/07/20 03:05:06;;;;;;;14.65;9.57;;;20.10;96.40;;;;;;5108763;28;20027;-83
2021/07/20 03:07:34;;;;;;;24.20;9.95;;;20.00;96.50;;;;;;5108391;28;20092;-80
2021/07/20 03:10:01;;;;;;;14.43;10.25;;;20.00;96.20;;;;;;5127257;28;20023;-80
2021/07/20 03:12:28;;;;;;;15.32;10.32;;;20.00;96.40;;;;;;5128207;28;20027;-78
2021/07/20 03:14:56;;;;;;;21.25;9.95;;;19.90;96.40;;;;;;5108301;28;20023;-84
2021/07/20 03:17:24;;;;;;;15.07;10.15;;;19.90;96.60;;;;;;5111090;27;20118;-82
2021/07/20 03:19:52;;;;;;;17.25;11.02;;;19.90;96.70;;;;;;5112673;27;20407;-83
2021/07/20 03:22:20;;;;;;;17.13;10.05;;;19.90;96.80;;;;;;5111763;27;20616;-83
2021/07/20 03:24:47;;;;;;;13.90;10.05;;;19.90;97.30;;;;;;5131113;27;20048;-83
2021/07/20 03:27:13;;;;;;;18.38;10.00;;;19.80;97.60;;;;;;5130777;27;20038;-77
2021/07/20 03:29:42;;;;;;;13.90;9.40;;;19.80;97.40;;;;;;5112300;27;20488;-85
2021/07/20 03:32:16;;;;;;;16.73;9.18;;;19.90;97.30;;;;;;5112277;27;20126;-82
2021/07/20 03:34:45;;;;;;;19.80;10.20;;;19.90;97.20;;;;;;5130176;27;20380;-80
2021/07/20 03:37:11;;;;;;;20.02;9.98;;;19.90;97.00;;;;;;5130071;27;20023;-80
2021/07/20 03:39:39;;;;;;;18.23;10.07;;;19.90;97.10;;;;;;5130532;27;20019;-79
2021/07/20 03:42:07;;;;;;;20.38;9.85;;;19.90;96.80;;;;;;5111924;27;20038;-81
2021/07/20 03:44:33;;;;;;;15.32;9.90;;;20.00;95.60;;;;;;5112386;27;20038;-83
2021/07/20 03:46:59;;;;;;;15.73;9.40;;;20.00;95.70;;;;;;5111902;27;20487;-82
2021/07/20 03:49:29;;;;;;;17.13;10.52;;;20.10;95.30;;;;;;5111979;27;20023;-83
2021/07/20 03:51:58;;;;;;;14.85;9.00;;;20.10;94.60;;;;;;5111227;27;20035;-82
2021/07/20 03:54:26;;;;;;;19.63;11.57;;;20.30;93.00;;;;;;5111786;27;20034;-83
2021/07/20 03:56:54;;;;;;;19.70;11.00;;;20.40;92.50;;;;;;5129703;27;20072;-84
2021/07/20 03:59:20;;;;;;;21.05;11.23;;;20.50;92.80;;;;;;5130271;27;20041;-85
2021/07/20 04:01:48;;;;;;;14.82;10.00;;;20.60;91.60;;;;;;5111807;27;20422;-85
2021/07/20 04:04:17;;;;;;;22.30;10.70;;;20.70;90.90;;;;;;5111448;27;20023;-84
2021/07/20 04:06:45;;;;;;;16.25;9.48;;;20.80;90.80;;;;;;5111371;27;20442;-82
2021/07/20 04:09:12;;;;;;;12.95;9.70;;;21.00;90.00;;;;;;5129922;27;20037;-83
2021/07/20 04:11:39;;;;;;;16.38;10.25;;;21.10;88.80;;;;;;5111740;27;20027;-85
2021/07/20 04:14:06;;;;;;;12.93;9.68;;;21.20;89.20;;;;;;5111995;27;20031;-85
2021/07/20 04:16:33;;;;;;;15.48;10.02;;;21.20;89.00;;;;;;5111952;27;20073;-85
2021/07/20 04:18:59;;;;;;;13.35;10.32;;;21.30;88.30;;;;;;5111837;27;20050;-82
2021/07/20 04:21:26;;;;;;;19.77;10.35;;;21.40;88.60;;;;;;5111131;27;20047;-84
2021/07/20 04:23:52;;;;;;;22.33;10.20;;;21.30;86.70;;;;;;5111382;27;20023;-82
2021/07/20 04:26:18;;;;;;;17.63;9.35;;;21.40;87.70;;;;;;5111150;27;20030;-84
2021/07/20 04:28:44;;;;;;;14.60;9.32;;;21.50;86.70;;;;;;5111512;27;20031;-86
2021/07/20 04:31:12;;;;;;;14.30;9.65;;;21.60;85.70;;;;;;5111398;27;20075;-85
2021/07/20 04:33:38;;;;;;;17.60;10.85;;;21.60;86.90;;;;;;5110850;27;20035;-83
2021/07/20 04:36:05;;;;;;;14.50;10.27;;;21.70;84.80;;;;;;5111254;27;20146;-84
2021/07/20 04:38:33;;;;;;;15.52;10.02;;;21.80;84.70;;;;;;5129327;27;20063;-82
2021/07/20 04:40:59;;;;;;;16.23;9.77;;;21.80;84.80;;;;;;5111280;27;20420;-84
2021/07/20 04:43:26;;;;;;;24.42;10.52;;;21.90;84.30;;;;;;5110886;27;20067;-79
2021/07/20 04:45:54;;;;;;;18.48;10.50;;;21.90;83.50;;;;;;5110537;27;20743;-83
2021/07/20 04:48:20;;;;;;;15.13;9.25;;;22.00;83.00;;;;;;5110545;27;20467;-83
2021/07/20 04:50:47;;;;;;;14.63;10.45;;;22.00;83.00;;;;;;5128990;27;20023;-80
2021/07/20 04:53:14;;;;;;;14.25;10.07;;;21.90;83.60;;;;;;5110738;27;20060;-84
2021/07/20 04:55:41;;;;;;;22.85;11.13;;;21.90;84.00;;;;;;5110700;27;20027;-82
2021/07/20 04:58:07;;;;;;;12.18;9.43;;;21.90;84.00;;;;;;5110891;27;20029;-82
2021/07/20 05:00:34;;;;;;;13.13;10.52;;;21.90;83.80;;;;;;5110783;27;20031;-79
2021/07/20 05:03:01;;;;;;;15.85;10.00;;;21.90;83.90;;;;;;5110616;27;20038;-82
2021/07/20 05:05:30;;;;;;;16.02;9.90;;;21.90;83.60;;;;;;5128300;27;20112;-84
2021/07/20 05:07:59;;;;;;;15.10;9.77;;;21.90;83.90;;;;;;5110578;27;20086;-85
2021/07/20 05:10:25;;;;;;;17.23;9.30;;;21.90;84.70;;;;;;5129150;27;20023;-84
2021/07/20 05:12:51;;;;;;;15.93;9.35;;;21.90;83.90;;;;;;5110590;27;20399;-86
2021/07/20 05:15:19;;;;;;;15.00;10.18;;;21.90;82.60;;;;;;5110395;27;20027;-83
2021/07/20 05:17:45;;;;;;;12.55;9.23;;;21.90;81.50;;;;;;5109837;27;20019;-85
2021/07/20 05:20:14;;;;;;;14.82;9.63;;;22.00;81.10;;;;;;5110661;27;20050;-85
2021/07/20 05:22:41;;;;;;;15.30;9.13;;;22.00;80.20;;;;;;5110455;27;20470;-86
2021/07/20 05:25:09;;;;;;;15.98;8.77;;;22.00;80.00;;;;;;5109387;27;20107;-85
2021/07/20 05:27:36;;;;;;;18.85;9.13;;;22.20;79.50;;;;;;5109377;27;20031;-85
2021/07/20 05:30:04;;;;;;;18.85;9.68;;;22.30;78.60;;;;;;5109548;27;20026;-84
2021/07/20 05:32:31;;;;;;;25.02;9.07;;;22.50;77.30;;;;;;5107297;27;20019;-82
2021/07/20 05:34:57;;;;;;;12.73;9.50;;;22.70;76.80;;;;;;5109512;27;20699;-83
2021/07/20 05:37:24;;;;;;;14.73;10.57;;;22.90;76.40;;;;;;5127617;27;20656;-85
2021/07/20 05:39:50;;;;;;;14.52;10.68;;;23.20;75.30;;;;;;5126257;27;20023;-84
2021/07/20 05:42:18;;;;;;;14.35;9.13;;;23.40;72.80;;;;;;5108366;27;20038;-83
2021/07/20 05:44:45;;;;;;;14.32;10.43;;;23.70;72.50;;;;;;5106153;27;20403;-83
2021/07/20 05:47:13;;;;;;;13.32;8.77;;;24.00;70.20;;;;;;5108434;27;20027;-84
2021/07/20 05:49:38;;;;;;;19.52;10.27;;;24.20;68.70;;;;;;5108428;27;20079;-83
2021/07/20 05:52:05;;;;;;;15.18;9.45;;;24.30;68.10;;;;;;5108436;27;20031;-82
2021/07/20 05:54:32;;;;;;;15.95;10.70;;;24.60;66.60;;;;;;5126470;27;20023;-80
2021/07/20 05:56:59;;;;;;;15.45;10.07;;;25.00;63.60;;;;;;5126543;27;20119;-78
2021/07/20 05:59:25;;;;;;;15.88;10.70;;;25.40;63.30;;;;;;5127090;27;20394;-79
2021/07/20 06:01:52;;;;;;;16.05;10.10;;;26.40;61.00;;;;;;5127085;27;20019;-77
2021/07/20 06:04:19;;;;;;;21.20;10.88;;;27.20;56.60;;;;;;5107305;27;20020;-80
2021/07/20 06:06:48;;;;;;;14.90;10.00;;;28.00;54.90;;;;;;5107793;27;20027;-81
2021/07/20 06:09:19;;;;;;;20.58;9.77;;;28.90;54.00;;;;;;5107791;27;20091;-79
2021/07/20 06:11:47;;;;;;;12.77;9.43;;;29.60;52.60;;;;;;5126583;27;20015;-79
2021/07/20 06:14:14;;;;;;;19.85;8.65;;;30.20;50.40;;;;;;5107852;27;20027;-78
2021/07/20 06:16:42;;;;;;;12.52;8.88;;;30.70;48.00;;;;;;5126715;27;20095;-82
2021/07/20 06:19:08;;;;;;;12.10;7.70;;;31.20;46.70;;;;;;5102339;27;20031;-83
2021/07/20 06:21:35;;;;;;;16.55;7.78;;;31.60;46.20;;;;;;5125668;27;20036;-83
2021/07/20 06:24:02;;;;;;;13.35;7.88;;;32.40;44.50;;;;;;5108904;27;20023;-85
2021/07/20 06:26:28;;;;;;;10.38;7.45;;;33.00;42.20;;;;;;5107686;27;20547;-80
2021/07/20 06:28:59;;;;;;;14.43;8.77;;;33.30;42.30;;;;;;5126367;27;20106;-82
2021/07/20 06:31:26;;;;;;;11.48;7.43;;;33.30;40.70;;;;;;5126369;27;20027;-83
2021/07/20 06:33:54;;;;;;;18.65;8.38;;;33.20;41.50;;;;;;5126746;27;20035;-79
2021/07/20 06:36:21;;;;;;;11.35;8.55;;;33.80;39.70;;;;;;5108074;27;20030;-80
2021/07/20 06:38:47;;;;;;;11.20;8.13;;;33.70;39.90;;;;;;5105118;27;20030;-81
2021/07/20 06:41:13;;;;;;;19.35;8.25;;;33.90;39.30;;;;;;5108727;27;20031;-82
2021/07/20 06:43:41;;;;;;;12.80;8.32;;;34.00;38.70;;;;;;5109176;28;20153;-82
2021/07/20 06:46:08;;;;;;;18.25;8.18;;;34.00;39.00;;;;;;5109706;28;20035;-81
2021/07/20 06:48:37;;;;;;;12.57;8.25;;;33.90;38.60;;;;;;5127161;28;20034;-82
2021/07/20 06:51:03;;;;;;;12.98;8.30;;;33.80;38.70;;;;;;5128229;27;20031;-82
2021/07/20 06:53:29;;;;;;;14.80;8.63;;;34.00;38.30;;;;;;5131912;27;20034;-81
2021/07/20 06:55:59;;;;;;;11.05;7.63;;;34.10;38.10;;;;;;5131090;27;20030;-81
2021/07/20 06:58:27;;;;;;;9.88;8.02;;;33.90;38.50;;;;;;5113718;27;20543;-81
2021/07/20 07:00:56;;;;;;;14.75;8.20;;;34.30;38.30;;;;;;5131096;27;20035;-81
2021/07/20 07:03:31;;;;;;;13.73;8.52;;;34.10;37.70;;;;;;5131670;27;20023;-82
2021/07/20 07:06:00;;;;;;;16.00;8.60;;;34.10;38.00;;;;;;5113370;27;20451;-84
2021/07/20 07:08:27;;;;;;;17.85;8.32;;;34.00;37.80;;;;;;5130299;27;20672;-82
2021/07/20 07:10:54;;;;;;;16.13;8.07;;;34.40;37.70;;;;;;5130853;27;20023;-82
2021/07/20 07:13:22;;;;;;;11.60;8.75;;;34.40;38.20;;;;;;5130087;27;20023;-81
2021/07/20 07:15:48;;;;;;;19.85;8.77;;;34.50;36.50;;;;;;5130815;27;20031;-82
2021/07/20 07:18:14;;;;;;;14.82;8.70;;;34.50;36.30;;;;;;5112846;27;20042;-82
2021/07/20 07:20:43;;;;;;;12.43;8.40;;;34.20;37.20;;;;;;5131189;27;20039;-83
2021/07/20 07:23:12;;;;;;;13.82;8.55;;;33.90;37.40;;;;;;5131091;27;20509;-82
2021/07/20 07:25:38;;;;;;;13.68;8.48;;;33.90;38.30;;;;;;5112659;27;20395;-82
2021/07/20 07:28:05;;;;;;;13.63;8.18;;;33.80;37.10;;;;;;5130840;27;20031;-82
2021/07/20 07:30:31;;;;;;;13.85;8.57;;;33.80;37.80;;;;;;5131065;27;20049;-83
2021/07/20 07:32:59;;;;;;;12.68;8.32;;;33.70;37.60;;;;;;5111830;27;20518;-82
2021/07/20 07:35:30;;;;;;;10.77;8.43;;;32.90;39.00;;;;;;5112027;27;20098;-82
2021/07/20 07:37:58;;;;;;;14.30;8.68;;;32.60;39.90;;;;;;5131071;27;20023;-81
2021/07/20 07:40:26;;;;;;;9.48;7.95;;;32.70;39.40;;;;;;5112274;27;20071;-84
2021/07/20 07:42:53;;;;;;;13.20;8.23;;;32.10;40.70;;;;;;5130269;27;20027;-81
2021/07/20 07:45:19;;;;;;;14.70;8.93;;;32.30;40.40;;;;;;5112152;27;20083;-81
2021/07/20 07:47:45;;;;;;;13.23;8.85;;;32.40;39.90;;;;;;5112354;27;20031;-82
2021/07/20 07:50:12;;;;;;;12.13;8.10;;;32.60;39.60;;;;;;5112094;27;20019;-84
2021/07/20 07:52:40;;;;;;;12.93;8.20;;;32.70;40.50;;;;;;5112137;27;20387;-82
2021/07/20 07:55:06;;;;;;;12.43;9.23;;;32.50;40.40;;;;;;5112026;27;20043;-83
2021/07/20 07:57:33;;;;;;;21.77;9.15;;;31.90;42.30;;;;;;5108233;28;20075;-82
2021/07/20 08:00:00;;;;;;;10.27;8.13;;;31.50;44.30;;;;;;5109788;28;20063;-84
2021/07/20 08:02:33;;;;;;;14.35;7.93;;;31.30;43.90;;;;;;5107438;28;20031;-81
2021/07/20 08:05:05;;;;;;;18.63;9.30;;;31.40;44.90;;;;;;5106941;28;20092;-81
2021/07/20 08:07:32;;;;;;;14.82;9.57;;;31.20;44.30;;;;;;5107631;28;20035;-81
2021/07/20 08:09:59;;;;;;;16.08;9.35;;;30.80;44.90;;;;;;5107448;28;20110;-82
2021/07/20 08:12:26;;;;;;;15.77;9.20;;;30.60;46.20;;;;;;5107944;28;20028;-82
2021/07/20 08:14:52;;;;;;;14.13;9.55;;;30.40;44.80;;;;;;5109648;28;20172;-81
2021/07/20 08:17:18;;;;;;;13.02;8.70;;;30.10;44.10;;;;;;5108045;28;20027;-81
2021/07/20 08:19:45;;;;;;;21.88;8.82;;;30.00;45.80;;;;;;5107504;28;20026;-81
2021/07/20 08:22:15;;;;;;;15.30;9.32;;;30.00;45.60;;;;;;5109495;28;20153;-81
2021/07/20 08:25:03;;;;;;;11.50;8.45;;;29.80;45.00;;;;;;5107812;28;20027;-82
2021/07/20 08:27:36;;;;;;;18.48;9.30;;;29.60;46.00;;;;;;5107976;28;20061;-81
2021/07/20 08:30:04;;;;;;;13.60;9.15;;;29.40;45.50;;;;;;5108241;28;20545;-80
2021/07/20 08:32:33;;;;;;;12.95;9.07;;;29.40;46.20;;;;;;5108453;28;20016;-81
2021/07/20 08:35:04;;;;;;;11.98;8.57;;;29.40;45.70;;;;;;5107601;28;20032;-81
2021/07/20 08:37:32;;;;;;;20.80;9.85;;;29.30;46.10;;;;;;5107893;28;20023;-82
2021/07/20 08:40:08;;;;;;;11.20;9.35;;;29.40;45.60;;;;;;5107812;28;20032;-81
2021/07/20 08:42:39;;;;;;;12.30;10.07;;;29.40;45.70;;;;;;5107777;28;20039;-81
2021/07/20 08:45:14;;;;;;;13.13;9.35;;;29.70;44.30;;;;;;5107919;28;20068;-82
2021/07/20 08:47:46;;;;;;;13.68;8.77;;;30.40;45.10;;;;;;5108873;28;20039;-81
2021/07/20 08:50:25;;;;;;;15.88;9.05;;;30.90;43.90;;;;;;5107196;28;20070;-82
2021/07/20 08:53:25;;;;;;;14.77;8.60;;;31.50;43.50;;;;;;5109039;28;20024;-82
2021/07/20 08:55:53;;;;;;;11.43;9.38;;;32.40;42.10;;;;;;5109012;27;20043;-81
2021/07/20 08:58:30;;;;;;;13.63;9.68;;;33.20;40.10;;;;;;5129457;27;20026;-81
2021/07/20 09:01:14;;;;;;;16.90;9.45;;;33.50;40.70;;;;;;5129187;27;20104;-82
2021/07/20 09:03:50;;;;;;;11.63;8.27;;;34.30;38.00;;;;;;5110274;27;20043;-83
2021/07/20 09:06:47;;;;;;;12.25;9.10;;;34.80;36.20;;;;;;5129116;27;20019;-82
2021/07/20 09:09:27;;;;;;;14.77;10.15;;;34.80;35.70;;;;;;5128784;27;20058;-82
2021/07/20 09:12:14;;;;;;;11.98;8.82;;;34.50;36.80;;;;;;5110458;27;20031;-81
2021/07/20 09:14:40;;;;;;;16.80;8.35;;;34.30;36.90;;;;;;5127793;27;20019;-81
2021/07/20 09:17:17;;;;;;;16.08;8.95;;;33.90;37.80;;;;;;5128698;27;20430;-81
2021/07/20 09:19:50;;;;;;;16.33;9.35;;;33.90;37.70;;;;;;5110025;27;20016;-81
2021/07/20 09:22:30;;;;;;;16.55;9.23;;;33.70;35.30;;;;;;5110564;27;20068;-82
2021/07/20 09:25:10;;;;;;;10.65;8.38;;;33.60;37.50;;;;;;5110051;27;20025;-81
2021/07/20 09:27:53;;;;;;;14.85;9.18;;;33.60;34.90;;;;;;5109773;27;20042;-81
2021/07/20 09:30:23;;;;;;;11.85;8.85;;;33.80;37.30;;;;;;5109931;27;20450;-81
2021/07/20 09:33:19;;;;;;;11.40;8.45;;;34.40;38.20;;;;;;5128322;27;20403;-82
2021/07/20 09:36:00;;;;;;;14.98;8.52;;;34.70;36.90;;;;;;5128477;27;20404;-81
2021/07/20 09:38:58;;;;;;;13.68;9.38;;;34.80;34.00;;;;;;5128376;27;20041;-82
2021/07/20 09:41:39;;;;;;;16.35;9.02;;;34.50;35.00;;;;;;5109955;27;20077;-82
2021/07/20 09:44:22;;;;;;;10.23;7.95;;;34.70;35.20;;;;;;5109694;27;20029;-82
2021/07/20 09:47:23;;;;;;;11.05;8.27;;;34.30;36.00;;;;;;5109493;27;20031;-81
2021/07/20 09:50:09;;;;;;;11.32;8.73;;;33.20;37.60;;;;;;5127966;27;20039;-81
2021/07/20 09:52:58;;;;;;;13.85;9.30;;;31.60;39.60;;;;;;5128506;27;20530;-81
2021/07/20 09:55:54;;;;;;;13.77;9.10;;;30.70;39.70;;;;;;5109624;27;20039;-82
2021/07/20 09:58:29;;;;;;;15.43;9.67;;;29.70;41.70;;;;;;5109285;27;20039;-82
2021/07/20 10:01:15;;;;;;;15.80;10.55;;;29.20;43.90;;;;;;5109266;27;20292;-81
2021/07/20 10:03:59;;;;;;;;;;;29.20;45.30;;;;;;5109507;27;20041;-80
2021/07/20 10:06:41;;;;;;;14.38;8.60;;;30.10;41.20;;;;;;5109397;27;20552;-81
2021/07/20 10:09:19;;;;;;;10.68;8.57;;;30.90;40.70;;;;;;5109502;27;20031;-81
2021/07/20 10:11:56;;;;;;;13.48;8.63;;;31.20;40.10;;;;;;5109667;27;20096;-80
2021/07/20 10:14:27;;;;;;;15.35;8.95;;;31.20;40.90;;;;;;5127502;27;20026;-82
2021/07/20 10:17:11;;;;;;;16.17;8.60;;;31.00;41.40;;;;;;5109323;27;20023;-79
2021/07/20 10:20:10;;;;;;;13.00;8.85;;;31.00;40.30;;;;;;5101481;28;20069;-82
2021/07/20 10:22:45;;;;;;;13.18;8.02;;;30.80;40.30;;;;;;5098521;27;20054;-81
2021/07/20 10:25:24;;;;;;;14.60;8.70;;;30.70;40.20;;;;;;5088352;28;20024;-81
2021/07/20 10:28:23;;;;;;;12.52;8.70;;;30.50;43.10;;;;;;5125341;27;20398;-81
2021/07/20 10:30:58;;;;;;;15.73;8.65;;;30.60;43.40;;;;;;5108946;27;20035;-81
2021/07/20 10:33:55;;;;;;;13.30;8.27;;;30.70;40.90;;;;;;5127467;27;20122;-81
2021/07/20 10:36:28;;;;;;;13.20;8.68;;;30.70;41.90;;;;;;5109287;27;20042;-81
2021/07/20 10:39:05;;;;;;;11.20;8.07;;;30.40;42.20;;;;;;5111019;27;20060;-82
2021/07/20 10:41:54;;;;;;;22.67;8.18;;;30.40;43.20;;;;;;5108718;28;20043;-81
2021/07/20 10:44:29;;;;;;;14.15;8.25;;;30.70;43.40;;;;;;5109002;28;20023;-81
2021/07/20 10:46:58;;;;;;;14.38;8.15;;;30.50;41.60;;;;;;5108523;28;20035;-82
2021/07/20 10:49:47;;;;;;;11.75;8.23;;;30.60;43.00;;;;;;5125526;28;20038;-81
2021/07/20 10:52:21;;;;;;;15.13;8.40;;;30.70;42.70;;;;;;5073050;28;20062;-81
2021/07/20 10:55:25;;;;;;;11.13;7.68;;;30.70;40.90;;;;;;5105542;28;20087;-81
2021/07/20 10:58:04;;;;;;;13.35;7.93;;;30.70;42.70;;;;;;5060993;28;20056;-82
2021/07/20 11:00:55;;;;;;;16.00;8.77;;;30.80;42.40;;;;;;5101373;28;20069;-82
2021/07/20 11:03:35;;;;;;;11.00;7.80;;;30.80;42.00;;;;;;5126005;28;20020;-80
2021/07/20 11:06:02;;;;;;;16.15;8.90;;;30.60;43.90;;;;;;5108079;28;20027;-81
2021/07/20 11:08:31;;;;;;;14.27;8.18;;;30.70;44.20;;;;;;5107057;28;20552;-82
2021/07/20 11:10:59;;;;;;;12.38;8.52;;;30.50;44.20;;;;;;5107511;28;20111;-81
2021/07/20 11:13:34;;;;;;;18.60;9.18;;;30.30;43.10;;;;;;5107860;28;20577;-83
2021/07/20 11:16:18;;;;;;;12.65;8.50;;;29.80;45.10;;;;;;5108228;28;20026;-81
2021/07/20 11:18:46;;;;;;;12.80;8.75;;;29.40;45.70;;;;;;5127447;28;20071;-82
2021/07/20 11:21:15;;;;;;;13.57;9.25;;;29.20;46.30;;;;;;5126772;28;20376;-82
2021/07/20 11:23:44;;;;;;;12.52;8.13;;;29.10;47.40;;;;;;5108602;28;20037;-81
2021/07/20 11:26:11;;;;;;;13.18;8.70;;;29.30;47.90;;;;;;5108679;28;20027;-81
2021/07/20 11:28:39;;;;;;;10.88;8.82;;;29.50;48.00;;;;;;5108474;28;20027;-81
2021/07/20 11:31:09;;;;;;;16.80;8.73;;;29.80;45.90;;;;;;5126676;28;20031;-82
2021/07/20 11:33:42;;;;;;;11.23;8.15;;;29.90;44.40;;;;;;5108648;28;20057;-81
2021/07/20 11:36:13;;;;;;;13.93;8.48;;;29.70;44.10;;;;;;5108347;28;20788;-82
2021/07/20 11:38:43;;;;;;;18.02;8.30;;;29.70;44.80;;;;;;5111602;27;20058;-82
2021/07/20 11:41:36;;;;;;;12.82;8.15;;;29.50;45.60;;;;;;5130551;27;20035;-80
2021/07/20 11:44:33;;;;;;;16.70;8.30;;;29.60;43.30;;;;;;5112178;27;20023;-81
2021/07/20 11:47:12;;;;;;;10.68;7.82;;;29.60;43.90;;;;;;5113922;27;20031;-81
2021/07/20 11:49:48;;;;;;;8.73;7.30;;;29.40;44.20;;;;;;5112175;27;20117;-81
2021/07/20 11:52:28;;;;;;;9.18;7.22;;;29.90;45.20;;;;;;5129844;27;20057;-80
2021/07/20 11:54:59;;;;;;;13.45;7.60;;;30.30;42.80;;;;;;5112293;27;20114;-81
2021/07/20 11:57:43;;;;;;;13.52;8.38;;;30.60;41.00;;;;;;5111598;27;20046;-81
2021/07/20 12:00:14;;;;;;;13.15;8.13;;;30.70;40.30;;;;;;5130321;27;20035;-81
2021/07/20 12:03:17;;;;;;;11.20;8.07;;;31.00;43.20;;;;;;5111247;27;20455;-81
2021/07/20 12:06:13;;;;;;;26.23;9.60;;;31.00;44.80;;;;;;5116562;27;20027;-81
2021/07/20 12:08:59;;;;;;;15.32;8.85;;;30.70;43.80;;;;;;5128675;27;20034;-79
2021/07/20 12:11:35;;;;;;;12.20;8.20;;;30.60;45.70;;;;;;5107532;27;20035;-82
2021/07/20 12:14:06;;;;;;;16.77;8.15;;;30.80;45.10;;;;;;5128454;27;20092;-83
2021/07/20 12:16:38;;;;;;;14.85;9.25;;;31.10;44.30;;;;;;5110102;27;20096;-81
2021/07/20 12:19:04;;;;;;;13.75;7.60;;;31.30;42.90;;;;;;5129333;27;20069;-82
2021/07/20 12:21:32;;;;;;;20.88;7.85;;;31.00;42.20;;;;;;5109959;27;20038;-83
2021/07/20 12:24:08;;;;;;;15.90;7.95;;;30.90;42.60;;;;;;5110603;27;20102;-81
2021/07/20 12:26:34;;;;;;;16.10;7.70;;;30.60;42.40;;;;;;5108181;27;20084;-82
2021/07/20 12:29:01;;;;;;;11.13;7.70;;;30.50;43.00;;;;;;5110325;27;20035;-81
2021/07/20 12:31:33;;;;;;;12.90;8.73;;;30.50;42.40;;;;;;5128208;27;20066;-82
2021/07/20 12:33:59;;;;;;;11.00;8.45;;;30.70;44.00;;;;;;5128912;27;20019;-83
2021/07/20 12:36:26;;;;;;;11.15;8.38;;;30.80;44.20;;;;;;5128668;27;20023;-81
2021/07/20 12:39:13;;;;;;;12.80;7.88;;;30.70;44.20;;;;;;5107264;27;20019;-82
2021/07/20 12:41:45;;;;;;;17.05;8.30;;;30.70;44.00;;;;;;5126634;27;20237;-81
2021/07/20 12:44:13;;;;;;;12.13;7.85;;;30.80;42.50;;;;;;5109763;27;20060;-83
2021/07/20 12:46:40;;;;;;;10.38;7.43;;;30.80;41.60;;;;;;5128056;27;20030;-79
2021/07/20 12:49:09;;;;;;;12.90;7.82;;;31.00;42.40;;;;;;5108360;27;20031;-80
2021/07/20 12:51:43;;;;;;;15.60;8.38;;;31.20;44.20;;;;;;5125596;27;20072;-81
2021/07/20 12:54:09;;;;;;;12.45;8.00;;;31.10;41.90;;;;;;5110987;27;20015;-82
2021/07/20 12:56:35;;;;;;;11.23;7.45;;;30.60;42.70;;;;;;5129327;27;20058;-82
2021/07/20 12:59:05;;;;;;;12.50;8.38;;;30.40;43.60;;;;;;5111032;27;20511;-81
2021/07/20 13:01:36;;;;;;;14.23;8.45;;;30.10;43.80;;;;;;5110263;27;20593;-82